createdAt,value
2022-07-25T00:00:09.192Z,100414.40
2022-07-25T00:02:58.157Z,100415.73
2022-07-25T00:05:27.217Z,100410.41
2022-07-25T00:07:55.879Z,100410.88
2022-07-25T00:10:24.893Z,100409.40
2022-07-25T00:12:53.412Z,100411.29
2022-07-25T00:15:21.948Z,100409.29
2022-07-25T00:17:50.805Z,100408.84
2022-07-25T00:20:19.385Z,100411.39
2022-07-25T00:22:48.017Z,100407.14
2022-07-25T00:25:16.580Z,100405.77
2022-07-25T00:27:45.056Z,100402.80
2022-07-25T00:30:14.057Z,100402.29
2022-07-25T00:32:42.606Z,100404.16
2022-07-25T00:35:11.232Z,100403.60
2022-07-25T00:37:39.817Z,100398.55
2022-07-25T00:40:09.577Z,100398.29
2022-07-25T00:42:38.401Z,100391.21
2022-07-25T00:45:07.493Z,100391.98
2022-07-25T00:47:36.006Z,100389.79
2022-07-25T00:50:05.149Z,100388.70
2022-07-25T00:52:34.983Z,100390.90
2022-07-25T00:55:04.890Z,100390.21
2022-07-25T00:57:34.084Z,100397.28
2022-07-25T01:00:07.503Z,100396.48
2022-07-25T01:02:36.088Z,100392.16
2022-07-25T01:05:06.018Z,100391.29
2022-07-25T01:07:36.105Z,100389.70
2022-07-25T01:10:06.373Z,100392.65
2022-07-25T01:12:53.261Z,100388.88
2022-07-25T01:15:24.668Z,100385.69
2022-07-25T01:17:53.472Z,100385.00
2022-07-25T01:20:28.730Z,100383.42
2022-07-25T01:22:57.175Z,100380.48
2022-07-25T01:25:27.522Z,100377.80
2022-07-25T01:27:57.836Z,100377.56
2022-07-25T01:30:26.988Z,100373.93
2022-07-25T01:32:55.480Z,100372.17
2022-07-25T01:35:24.097Z,100373.66
2022-07-25T01:37:52.694Z,100370.30
2022-07-25T01:40:21.338Z,100369.86
2022-07-25T01:42:49.980Z,100366.89
2022-07-25T01:45:18.719Z,100362.98
2022-07-25T01:47:47.251Z,100356.86
2022-07-25T01:50:15.870Z,100353.33
2022-07-25T01:52:44.460Z,100352.98
2022-07-25T01:55:13.176Z,100352.52
2022-07-25T01:57:48.609Z,100350.29
2022-07-25T02:00:18.902Z,100347.20
2022-07-25T02:02:48.145Z,100346.08
2022-07-25T02:05:16.726Z,100342.34
2022-07-25T02:07:45.289Z,100338.56
2022-07-25T02:10:13.886Z,100338.04
2022-07-25T02:12:42.433Z,100337.82
2022-07-25T02:15:11.422Z,100342.21
2022-07-25T02:17:39.930Z,100341.52
2022-07-25T02:20:09.338Z,100339.14
2022-07-25T02:22:37.796Z,100341.64
2022-07-25T02:25:07.438Z,100340.34
2022-07-25T02:27:36.037Z,100339.75
2022-07-25T02:30:06.395Z,100342.66
2022-07-25T02:32:34.875Z,100345.29
2022-07-25T02:35:04.593Z,100345.70
2022-07-25T02:37:41.921Z,100341.84
2022-07-25T02:40:11.160Z,100343.07
2022-07-25T02:42:39.931Z,100339.82
2022-07-25T02:45:09.270Z,100342.57
2022-07-25T02:47:38.271Z,100339.98
2022-07-25T02:50:08.182Z,100342.59
2022-07-25T02:52:37.134Z,100338.65
2022-07-25T02:55:09.710Z,100338.13
2022-07-25T02:57:38.622Z,100337.04
2022-07-25T03:00:08.585Z,100337.95
2022-07-25T03:02:37.204Z,100342.11
2022-07-25T03:05:11.440Z,100344.10
2022-07-25T03:07:40.526Z,100342.24
2022-07-25T03:10:12.479Z,100344.41
2022-07-25T03:12:42.373Z,100343.92
2022-07-25T03:15:13.339Z,100343.88
2022-07-25T03:17:42.371Z,100337.06
2022-07-25T03:20:11.773Z,100334.53
2022-07-25T03:22:40.510Z,100334.48
2022-07-25T03:25:15.901Z,100331.42
2022-07-25T03:27:51.025Z,100331.80
2022-07-25T03:30:19.897Z,100330.22
2022-07-25T03:32:49.136Z,100328.16
2022-07-25T03:35:17.769Z,100329.72
2022-07-25T03:37:46.281Z,100326.91
2022-07-25T03:40:15.922Z,100328.83
2022-07-25T03:42:44.771Z,100326.36
2022-07-25T03:45:13.572Z,100325.20
2022-07-25T03:47:42.132Z,100323.30
2022-07-25T03:50:11.405Z,100324.01
2022-07-25T03:52:40.202Z,100323.95
2022-07-25T03:55:11.263Z,100322.27
2022-07-25T03:57:40.048Z,100320.06
2022-07-25T04:00:10.588Z,100316.88
2022-07-25T04:02:39.540Z,100314.11
2022-07-25T04:05:09.280Z,100311.46
2022-07-25T04:07:38.666Z,100312.09
2022-07-25T04:10:08.550Z,100309.63
2022-07-25T04:12:37.650Z,100304.38
2022-07-25T04:15:07.131Z,100306.60
2022-07-25T04:17:35.666Z,100303.66
2022-07-25T04:20:08.834Z,100304.06
2022-07-25T04:22:37.423Z,100298.38
2022-07-25T04:25:06.717Z,100296.73
2022-07-25T04:27:35.214Z,100301.16
2022-07-25T04:30:04.140Z,100302.95
2022-07-25T04:32:32.679Z,100293.15
2022-07-25T04:35:01.184Z,100288.09
2022-07-25T04:37:29.813Z,100282.48
2022-07-25T04:39:58.370Z,100283.50
2022-07-25T04:42:27.981Z,100277.07
2022-07-25T04:44:56.525Z,100273.94
2022-07-25T04:47:25.121Z,100277.59
2022-07-25T04:49:55.589Z,100274.84
2022-07-25T04:52:24.133Z,100273.39
2022-07-25T04:54:52.931Z,100270.16
2022-07-25T04:57:21.443Z,100271.23
2022-07-25T04:59:49.977Z,100263.48
2022-07-25T05:02:18.647Z,100262.61
2022-07-25T05:04:47.656Z,100263.56
2022-07-25T05:07:20.703Z,100265.63
2022-07-25T05:09:49.283Z,100263.38
2022-07-25T05:12:18.258Z,100262.55
2022-07-25T05:14:46.772Z,100265.20
2022-07-25T05:17:16.004Z,100261.32
2022-07-25T05:19:44.480Z,100261.21
2022-07-25T05:22:13.288Z,100260.50
2022-07-25T05:24:41.970Z,100257.09
2022-07-25T05:27:10.535Z,100253.82
2022-07-25T05:29:39.086Z,100251.85
2022-07-25T05:32:07.604Z,100249.34
2022-07-25T05:34:36.102Z,100248.13
2022-07-25T05:37:04.665Z,100246.29
2022-07-25T05:39:33.191Z,100239.81
2022-07-25T05:42:01.791Z,100240.00
2022-07-25T05:44:30.305Z,100238.77
2022-07-25T05:46:58.877Z,100237.91
2022-07-25T05:49:27.420Z,100237.92
2022-07-25T05:51:55.992Z,100240.16
2022-07-25T05:54:24.503Z,100240.05
2022-07-25T05:56:56.186Z,100233.20
2022-07-25T05:59:24.737Z,100234.21
2022-07-25T06:01:53.534Z,100230.46
2022-07-25T06:04:27.034Z,100234.73
2022-07-25T06:06:56.827Z,100236.39
2022-07-25T06:09:25.573Z,100236.27
2022-07-25T06:11:59.738Z,100232.50
2022-07-25T06:14:29.672Z,100235.50
2022-07-25T06:16:58.222Z,100241.00
2022-07-25T06:19:26.886Z,100240.09
2022-07-25T06:21:55.398Z,100236.64
2022-07-25T06:24:23.871Z,100238.02
2022-07-25T06:26:52.500Z,100237.77
2022-07-25T06:29:21.002Z,100232.39
2022-07-25T06:31:49.616Z,100229.58
2022-07-25T06:34:18.202Z,100220.23
2022-07-25T06:36:46.711Z,100216.92
2022-07-25T06:39:15.316Z,100212.22
2022-07-25T06:41:43.853Z,100210.86
2022-07-25T06:44:12.357Z,100211.86
2022-07-25T06:46:41.332Z,100208.89
2022-07-25T06:49:10.021Z,100206.04
2022-07-25T06:51:38.651Z,100201.23
2022-07-25T06:54:07.521Z,100199.40
2022-07-25T06:56:36.507Z,100200.05
2022-07-25T06:59:05.153Z,100196.40
2022-07-25T07:01:33.762Z,100194.52
2022-07-25T07:04:02.762Z,100191.90
2022-07-25T07:06:31.658Z,100191.73
2022-07-25T07:09:00.178Z,100186.16
2022-07-25T07:11:28.720Z,100178.81
2022-07-25T07:13:57.347Z,100179.94
2022-07-25T07:16:26.478Z,100181.19
2022-07-25T07:18:55.543Z,100180.89
2022-07-25T07:21:25.050Z,100177.72
2022-07-25T07:23:54.567Z,100174.66
2022-07-25T07:26:25.547Z,100174.10
2022-07-25T07:28:55.280Z,100171.30
2022-07-25T07:31:23.932Z,100167.04
2022-07-25T07:33:52.539Z,100166.73
2022-07-25T07:36:22.347Z,100167.34
2022-07-25T07:38:50.906Z,100160.91
2022-07-25T07:41:19.857Z,100161.27
2022-07-25T07:43:48.491Z,100154.76
2022-07-25T07:46:17.046Z,100152.04
2022-07-25T07:48:45.812Z,100154.65
2022-07-25T07:51:14.366Z,100148.37
2022-07-25T07:54:01.421Z,100144.26
2022-07-25T07:56:29.946Z,100138.77
2022-07-25T07:58:58.549Z,100135.20
2022-07-25T08:01:27.294Z,100132.08
2022-07-25T08:03:55.994Z,100136.52
2022-07-25T08:06:24.716Z,100130.80
2022-07-25T08:08:53.404Z,100129.92
2022-07-25T08:11:22.103Z,100128.17
2022-07-25T08:13:50.780Z,100127.42
2022-07-25T08:16:19.462Z,100121.71
2022-07-25T08:18:48.153Z,100123.61
2022-07-25T08:21:16.892Z,100120.59
2022-07-25T08:23:47.395Z,100118.18
2022-07-25T08:26:16.006Z,100118.08
2022-07-25T08:28:44.584Z,100114.98
2022-07-25T08:31:13.174Z,100118.98
2022-07-25T08:33:41.736Z,100120.25
2022-07-25T08:36:11.662Z,100115.40
2022-07-25T08:38:40.421Z,100115.56
2022-07-25T08:41:08.939Z,100113.02
2022-07-25T08:43:39.589Z,100115.77
2022-07-25T08:46:08.543Z,100114.16
2022-07-25T08:48:39.100Z,100110.91
2022-07-25T08:51:08.597Z,100107.48
2022-07-25T08:53:37.254Z,100112.77
2022-07-25T08:56:16.053Z,100113.02
2022-07-25T08:58:47.531Z,100109.30
2022-07-25T09:01:16.208Z,100109.49
2022-07-25T09:03:44.885Z,100095.06
2022-07-25T09:06:23.426Z,100099.02
2022-07-25T09:09:00.746Z,100097.70
2022-07-25T09:11:37.836Z,100089.25
2022-07-25T09:14:15.195Z,100088.77
2022-07-25T09:16:45.534Z,100088.94
2022-07-25T09:19:21.413Z,100093.92
2022-07-25T09:22:10.244Z,100090.79
2022-07-25T09:24:45.581Z,100082.42
2022-07-25T09:27:15.154Z,100082.45
2022-07-25T09:29:45.299Z,100077.82
2022-07-25T09:32:17.718Z,100076.21
2022-07-25T09:34:48.986Z,100073.07
2022-07-25T09:37:25.279Z,100068.30
2022-07-25T09:39:53.949Z,100067.38
2022-07-25T09:42:28.005Z,100055.94
2022-07-25T09:45:10.130Z,100060.16
2022-07-25T09:47:57.541Z,100060.76
2022-07-25T09:50:29.299Z,100056.77
2022-07-25T09:53:02.589Z,100055.88
2022-07-25T09:55:31.686Z,100055.14
2022-07-25T09:58:00.259Z,100050.45
2022-07-25T10:00:31.473Z,100049.61
2022-07-25T10:03:18.783Z,100044.52
2022-07-25T10:05:56.761Z,100040.44
2022-07-25T10:08:27.076Z,100036.24
2022-07-25T10:10:55.729Z,100038.88
2022-07-25T10:13:35.299Z,100033.03
2022-07-25T10:16:16.945Z,100029.61
2022-07-25T10:18:55.300Z,100029.79
2022-07-25T10:21:28.359Z,100023.05
2022-07-25T10:24:08.237Z,100022.49
2022-07-25T10:26:40.234Z,100023.93
2022-07-25T10:29:14.093Z,100017.35
2022-07-25T10:31:51.102Z,100014.73
2022-07-25T10:34:31.777Z,100016.23
2022-07-25T10:37:15.404Z,100007.38
2022-07-25T10:39:46.386Z,100004.15
2022-07-25T10:42:24.053Z,99993.77
2022-07-25T10:44:59.677Z,99991.66
2022-07-25T10:47:28.735Z,99981.23
2022-07-25T10:53:01.324Z,99973.98
2022-07-25T10:55:30.042Z,99968.66
2022-07-25T10:58:17.948Z,99966.55
2022-07-25T11:00:47.106Z,99957.62
2022-07-25T11:03:18.365Z,99955.36
2022-07-25T11:05:48.219Z,99956.03
2022-07-25T11:08:22.443Z,99954.80
2022-07-25T11:10:53.146Z,99957.17
2022-07-25T11:13:21.760Z,99950.29
2022-07-25T11:15:50.727Z,99954.38
2022-07-25T11:18:19.363Z,99952.33
2022-07-25T11:21:01.730Z,99945.80
2022-07-25T11:23:37.264Z,99942.33
2022-07-25T11:26:13.447Z,99934.70
2022-07-25T11:28:50.308Z,99931.36
2022-07-25T11:31:23.218Z,99922.67
2022-07-25T11:33:52.019Z,99923.39
2022-07-25T11:36:20.794Z,99915.00
2022-07-25T11:38:49.987Z,99912.14
2022-07-25T11:41:29.880Z,99903.65
2022-07-25T11:43:58.482Z,99911.22
2022-07-25T11:46:27.034Z,99903.49
2022-07-25T11:49:06.220Z,99893.06
2022-07-25T11:51:39.334Z,99888.46
2022-07-25T11:54:10.981Z,99880.43
2022-07-25T11:56:42.844Z,99877.91
2022-07-25T11:59:12.376Z,99877.33
2022-07-25T12:01:43.770Z,99874.73
2022-07-25T12:04:18.969Z,99875.02
2022-07-25T12:06:51.345Z,99877.60
2022-07-25T12:09:22.251Z,99870.85
2022-07-25T12:11:50.868Z,99865.06
2022-07-25T12:14:19.377Z,99866.43
2022-07-25T12:16:47.998Z,99861.61
2022-07-25T12:19:22.336Z,99855.75
2022-07-25T12:21:50.969Z,99847.56
2022-07-25T12:24:19.684Z,99847.93
2022-07-25T12:26:49.114Z,99843.39
2022-07-25T12:29:17.729Z,99842.06
2022-07-25T12:31:46.224Z,99835.98
2022-07-25T12:34:14.842Z,99830.05
2022-07-25T12:36:45.314Z,99822.95
2022-07-25T12:39:14.065Z,99815.02
2022-07-25T12:41:43.046Z,99815.47
2022-07-25T12:44:12.449Z,99808.57
2022-07-25T12:46:48.813Z,99804.23
2022-07-25T12:49:18.500Z,99804.58
2022-07-25T12:51:47.427Z,99795.43
2022-07-25T12:54:22.022Z,99795.06
2022-07-25T12:56:51.672Z,99796.08
2022-07-25T12:59:20.394Z,99796.44
2022-07-25T13:01:49.155Z,99793.42
2022-07-25T13:04:18.004Z,99791.34
2022-07-25T13:06:46.560Z,99789.64
2022-07-25T13:09:15.257Z,99788.26
2022-07-25T13:11:43.991Z,99783.86
2022-07-25T13:14:13.464Z,99775.08
2022-07-25T13:16:47.076Z,99771.98
2022-07-25T13:19:16.652Z,99769.09
2022-07-25T13:21:45.249Z,99770.45
2022-07-25T13:24:13.944Z,99767.16
2022-07-25T13:26:42.520Z,99756.89
2022-07-25T13:29:12.538Z,99750.85
2022-07-25T13:31:42.842Z,99746.44
2022-07-25T13:34:11.782Z,99740.62
2022-07-25T13:36:40.408Z,99736.96
2022-07-25T13:39:09.226Z,99725.67
2022-07-25T13:41:38.065Z,99722.61
2022-07-25T13:44:06.875Z,99723.66
2022-07-25T13:46:36.220Z,99722.13
2022-07-25T13:49:05.102Z,99710.45
2022-07-25T13:51:34.030Z,99713.04
2022-07-25T13:54:04.353Z,99708.02
2022-07-25T13:56:33.750Z,99705.13
2022-07-25T13:59:03.539Z,99699.88
2022-07-25T14:01:32.437Z,99695.73
2022-07-25T14:04:01.136Z,99693.06
2022-07-25T14:06:29.683Z,99690.67
2022-07-25T14:08:58.233Z,99688.16
2022-07-25T14:11:30.500Z,99683.77
2022-07-25T14:13:59.411Z,99683.05
2022-07-25T14:16:28.072Z,99681.06
2022-07-25T14:18:56.898Z,99674.78
2022-07-25T14:21:25.619Z,99672.27
2022-07-25T14:23:54.180Z,99676.61
2022-07-25T14:26:22.818Z,99675.83
2022-07-25T14:28:51.649Z,99676.60
2022-07-25T14:31:21.522Z,99669.52
2022-07-25T14:33:50.181Z,99666.00
2022-07-25T14:36:18.805Z,99664.17
2022-07-25T14:38:48.589Z,99659.17
2022-07-25T14:41:17.291Z,99656.02
2022-07-25T14:43:46.829Z,99657.84
2022-07-25T14:46:15.988Z,99650.70
2022-07-25T14:48:44.712Z,99647.01
2022-07-25T14:51:13.345Z,99646.31
2022-07-25T14:53:42.195Z,99634.33
2022-07-25T14:56:11.161Z,99635.26
2022-07-25T14:58:39.924Z,99630.60
2022-07-25T15:01:09.608Z,99618.98
2022-07-25T15:03:38.202Z,99618.99
2022-07-25T15:06:10.055Z,99613.86
2022-07-25T15:08:42.970Z,99608.20
2022-07-25T15:11:12.368Z,99605.15
2022-07-25T15:13:40.907Z,99601.33
2022-07-25T15:16:10.228Z,99602.72
2022-07-25T15:19:05.468Z,99599.67
2022-07-25T15:21:27.789Z,99593.27
2022-07-25T15:23:57.645Z,99591.41
2022-07-25T15:26:26.919Z,99584.36
2022-07-25T15:28:55.625Z,99585.92
2022-07-25T15:31:26.511Z,99585.77
2022-07-25T15:33:55.234Z,99582.39
2022-07-25T15:36:29.150Z,99582.84
2022-07-25T15:38:58.299Z,99581.73
2022-07-25T15:41:26.853Z,99579.70
2022-07-25T15:43:55.410Z,99576.06
2022-07-25T15:46:24.045Z,99574.30
2022-07-25T15:48:53.525Z,99569.70
2022-07-25T15:51:22.129Z,99563.31
2022-07-25T15:53:50.855Z,99564.43
2022-07-25T15:56:20.013Z,99565.49
2022-07-25T15:58:49.540Z,99560.01
2022-07-25T16:01:18.501Z,99552.44
2022-07-25T16:03:47.236Z,99555.57
2022-07-25T16:06:20.747Z,99548.08
2022-07-25T16:08:50.294Z,99546.99
2022-07-25T16:11:18.878Z,99544.63
2022-07-25T16:13:47.495Z,99543.52
2022-07-25T16:16:16.203Z,99544.31
2022-07-25T16:18:45.038Z,99546.34
2022-07-25T16:21:14.136Z,99537.55
2022-07-25T16:23:45.480Z,99534.89
2022-07-25T16:26:14.431Z,99538.80
2022-07-25T16:28:43.485Z,99533.59
2022-07-25T16:31:12.224Z,99535.84
2022-07-25T16:33:41.127Z,99529.77
2022-07-25T16:36:11.246Z,99528.71
2022-07-25T16:38:39.835Z,99525.29
2022-07-25T16:41:08.364Z,99522.16
2022-07-25T16:43:36.838Z,99520.37
2022-07-25T16:46:06.585Z,99517.30
2022-07-25T16:48:35.957Z,99515.67
2022-07-25T16:51:05.167Z,99511.13
2022-07-25T16:53:35.860Z,99510.59
2022-07-25T16:56:04.839Z,99513.04
2022-07-25T16:58:33.987Z,99517.42
2022-07-25T17:01:02.574Z,99517.98
2022-07-25T17:03:31.258Z,99516.11
2022-07-25T17:06:01.409Z,99511.98
2022-07-25T17:08:32.069Z,99513.11
2022-07-25T17:11:00.754Z,99512.37
2022-07-25T17:13:29.355Z,99506.67
2022-07-25T17:15:57.978Z,99510.53
2022-07-25T17:18:26.841Z,99507.13
2022-07-25T17:20:55.507Z,99502.70
2022-07-25T17:23:24.682Z,99496.83
2022-07-25T17:25:53.955Z,99489.67
2022-07-25T17:28:23.423Z,99488.41
2022-07-25T17:30:52.167Z,99490.60
2022-07-25T17:33:20.778Z,99491.71
2022-07-25T17:35:49.883Z,99490.77
2022-07-25T17:38:23.781Z,99483.02
2022-07-25T17:40:54.495Z,99480.16
2022-07-25T17:43:23.122Z,99480.83
2022-07-25T17:45:51.838Z,99477.45
2022-07-25T17:48:20.417Z,99473.77
2022-07-25T17:50:49.091Z,99472.05
2022-07-25T17:53:18.215Z,99465.92
2022-07-25T17:55:46.929Z,99464.30
2022-07-25T17:58:15.649Z,99461.91
2022-07-25T18:00:44.379Z,99459.02
2022-07-25T18:03:14.496Z,99450.95
2022-07-25T18:05:44.188Z,99446.64
2022-07-25T18:08:12.768Z,99445.45
2022-07-25T18:10:41.291Z,99438.88
2022-07-25T18:13:10.283Z,99438.62
2022-07-25T18:15:38.998Z,99433.78
2022-07-25T18:18:10.504Z,99433.12
2022-07-25T18:20:41.205Z,99432.77
2022-07-25T18:23:09.989Z,99426.52
2022-07-25T18:25:38.749Z,99422.10
2022-07-25T18:28:07.737Z,99425.71
2022-07-25T18:30:36.307Z,99421.08
2022-07-25T18:33:04.916Z,99423.44
2022-07-25T18:35:33.481Z,99419.67
2022-07-25T18:38:02.569Z,99415.75
2022-07-25T18:40:31.145Z,99409.66
2022-07-25T18:42:59.896Z,99412.02
2022-07-25T18:45:32.066Z,99411.15
2022-07-25T18:48:01.466Z,99416.60
2022-07-25T18:50:30.026Z,99420.38
2022-07-25T18:52:59.324Z,99419.69
2022-07-25T18:55:27.941Z,99421.86
2022-07-25T18:57:56.625Z,99419.14
2022-07-25T19:00:25.365Z,99420.20
2022-07-25T19:02:53.896Z,99422.21
2022-07-25T19:05:22.918Z,99429.29
2022-07-25T19:07:51.869Z,99428.88
2022-07-25T19:10:20.368Z,99425.12
2022-07-25T19:12:49.007Z,99425.02
2022-07-25T19:15:17.541Z,99427.10
2022-07-25T19:17:46.327Z,99432.96
2022-07-25T19:20:15.109Z,99435.37
2022-07-25T19:22:43.649Z,99433.80
2022-07-25T19:25:12.203Z,99434.05
2022-07-25T19:27:41.793Z,99434.80
2022-07-25T19:30:16.844Z,99439.88
2022-07-25T19:32:46.531Z,99442.66
2022-07-25T19:35:15.259Z,99441.40
2022-07-25T19:37:44.886Z,99440.16
2022-07-25T19:40:13.784Z,99434.75
2022-07-25T19:42:42.548Z,99434.52
2022-07-25T19:45:11.641Z,99435.77
2022-07-25T19:47:40.195Z,99437.58
2022-07-25T19:50:09.264Z,99437.30
2022-07-25T19:52:37.912Z,99433.74
2022-07-25T19:55:07.251Z,99429.99
2022-07-25T19:57:36.618Z,99433.46
2022-07-25T20:00:07.027Z,99435.77
2022-07-25T20:02:35.980Z,99437.86
2022-07-25T20:05:05.210Z,99439.35
2022-07-25T20:07:33.787Z,99438.36
2022-07-25T20:10:02.454Z,99437.44
2022-07-25T20:12:34.438Z,99430.15
2022-07-25T20:15:04.258Z,99431.51
2022-07-25T20:17:32.856Z,99431.39
2022-07-25T20:20:01.473Z,99425.61
2022-07-25T20:22:31.579Z,99422.67
2022-07-25T20:25:00.125Z,99420.06
2022-07-25T20:27:28.716Z,99418.70
2022-07-25T20:29:57.431Z,99416.52
2022-07-25T20:32:26.151Z,99416.23
2022-07-25T20:34:55.186Z,99416.58
2022-07-25T20:37:24.114Z,99416.01
2022-07-25T20:39:54.049Z,99412.60
2022-07-25T20:42:22.713Z,99409.55
2022-07-25T20:44:51.277Z,99407.96
2022-07-25T20:47:19.856Z,99400.93
2022-07-25T20:49:48.392Z,99398.21
2022-07-25T20:52:16.976Z,99393.76
2022-07-25T20:54:45.543Z,99399.99
2022-07-25T20:57:14.207Z,99396.36
2022-07-25T20:59:42.745Z,99399.88
2022-07-25T21:02:11.738Z,99396.87
2022-07-25T21:04:40.941Z,99396.48
2022-07-25T21:07:09.456Z,99394.56
2022-07-25T21:09:39.567Z,99385.24
2022-07-25T21:12:08.692Z,99385.13
2022-07-25T21:14:37.664Z,99384.27
2022-07-25T21:17:06.296Z,99383.44
2022-07-25T21:19:34.883Z,99381.96
2022-07-25T21:22:04.197Z,99376.96
2022-07-25T21:24:32.885Z,99375.75
2022-07-25T21:27:02.114Z,99372.92
2022-07-25T21:29:30.932Z,99371.16
2022-07-25T21:31:59.438Z,99373.37
2022-07-25T21:34:28.017Z,99375.02
2022-07-25T21:36:57.114Z,99375.21
2022-07-25T21:39:26.331Z,99378.49
2022-07-25T21:41:55.543Z,99376.80
2022-07-25T21:44:24.352Z,99382.39
2022-07-25T21:46:53.575Z,99389.29
2022-07-25T21:49:42.805Z,99389.76
2022-07-25T21:52:13.456Z,99388.41
2022-07-25T21:54:43.545Z,99383.92
2022-07-25T21:57:13.684Z,99381.98
2022-07-25T21:59:44.289Z,99372.59
2022-07-25T22:03:09.329Z,99363.33
2022-07-25T22:05:38.020Z,99357.55
2022-07-25T22:08:06.820Z,99354.02
2022-07-25T22:10:35.627Z,99346.92
2022-07-25T22:13:07.355Z,99346.56
2022-07-25T22:15:36.099Z,99346.13
2022-07-25T22:18:05.555Z,99345.25
2022-07-25T22:20:34.499Z,99342.47
2022-07-25T22:23:04.369Z,99327.56
2022-07-25T22:25:33.045Z,99323.80
2022-07-25T22:28:01.909Z,99314.94
2022-07-25T22:30:30.719Z,99312.48
2022-07-25T22:32:59.414Z,99306.84
2022-07-25T22:35:28.297Z,99303.08
2022-07-25T22:37:57.064Z,99304.81
2022-07-25T22:40:25.773Z,99301.98
2022-07-25T22:42:54.494Z,99296.44
2022-07-25T22:45:24.232Z,99300.22
2022-07-25T22:47:53.098Z,99294.81
2022-07-25T22:50:21.931Z,99302.17
2022-07-25T22:52:51.054Z,99302.50
2022-07-25T22:55:19.999Z,99295.23
2022-07-25T22:57:49.897Z,99295.20
2022-07-25T23:00:18.852Z,99303.20
2022-07-25T23:02:47.592Z,99304.20
2022-07-25T23:05:16.431Z,99306.35
2022-07-25T23:07:45.138Z,99301.96
2022-07-25T23:10:13.991Z,99303.13
2022-07-25T23:12:43.076Z,99300.36
2022-07-25T23:15:11.785Z,99301.54
2022-07-25T23:17:40.523Z,99305.09
2022-07-25T23:20:10.522Z,99301.40
2022-07-25T23:22:39.298Z,99303.76
2022-07-25T23:25:10.733Z,99307.84
2022-07-25T23:27:39.719Z,99311.41
2022-07-25T23:30:09.675Z,99311.65
2022-07-25T23:32:38.363Z,99313.60
2022-07-25T23:35:07.701Z,99306.05
2022-07-25T23:37:36.527Z,99297.98
2022-07-25T23:40:06.689Z,99294.25
2022-07-25T23:42:35.215Z,99294.14
2022-07-25T23:45:47.724Z,99290.20
2022-07-25T23:48:16.884Z,99285.50
2022-07-25T23:50:45.581Z,99289.64
2022-07-25T23:53:14.260Z,99291.23
2022-07-25T23:55:42.932Z,99292.36
2022-07-25T23:58:11.644Z,99287.46
